Cottondale, Florida
Current Conditions -  °F | °C
As of 2:53 PM on Sunday 21 Dec 2014 (Local Time) from KMAI Reporting Station
Haze Haze  
Wind Chill: 55°   Ceiling: 700
Heat Index: 55°   Visibility: 4mi
Dew Point: 55°   Wind: 9mph
Humidity: 100%   Direction: 50°NE
Pressure: 30.02"   Gusts: NA
Location:  30.8°N, 85.38°W
Report Text: KMAI 212053Z AUTO 05008KT 4SM BR OVC007 13/13 A3002 RMK AO2 RAB1959E13 CIG 004V009 SLP164 P0000 60000 T01280128 56022 $
Loading
Personal Weather Stations






























Interactive Weather Map New forecast layout! Learn more

10-Day Weather Forecast

Advertisements
Track Severe Weather on mobile